Архив погоды в Безенчуке

Метеограмма Безенчук
Вторник, 22 Мая
Время местн. Темп Ветер Видим Явления Облачность нижн/средн/верх Атм. давл. Влжн Точка росы ВНГО R Сост. почвы Tg s
Напр Скр Прв ур.ст ур.м изм
22:00 +10.9° штиль 0 - 10 км - переменная облачность 768 773 +0.3 76% +6.8° более 2.5 км - - - -
19:00 +23° В 2 - 20 км - переменная облачность 768 772 -0.7 25% +2.2° более 2.5 км - - - -
16:00 +23.2° С-В 2 - 20 км - переменная облачность 768 773 -0.5 23% +1° более 2.5 км - - - -
13:00 +22.1° В,С-В 2 - 20 км - переменная облачность 769 774 -0.3 30% +3.7° более 2.5 км - - - -
10:00 +18.2° В 4 - 20 км - переменная облачность 770 774 +0.7 36% +2.8° более 2.5 км - - - -
07:00 +12.8° В 2 - 20 км - ясно 769 773 +1.3 68% +7° более 2.5 км - Сухая (без трещин) - -
04:00 +7.7° В 1 - 20 км - ясно 768 772 +1.3 87% +5.7° более 2.5 км - - - -
01:00 +13.6° В 2 - 22 км - незначительная облачность 766 771 +0.7 59% +5.8° 1 км - - - -
Понедельник, 21 Мая
Время местн. Темп Ветер Видим Явления Облачность нижн/средн/верх Атм. давл. Влжн Точка росы ВНГО R Сост. почвы Tg s
Напр Скр Прв ур.ст ур.м изм
22:00 +15.2° С,С-В 1 - 23 км - переменная облачность 766 770 +1.4 59% +7.2° 1 км - - - -
19:00 +17.6° В,С-В 2 - 20 км - облачно с прояснениями 764 769 +0.3 48% +6.5° 1 км - - - -
16:00 +18.6° С,С-В 3 - 20 км - переменная облачность 764 768 +0.2 54% +9° - - - - -
13:00 +16.7° С 3 - 20 км - облачно с прояснениями 764 768 +0.5 63% +9.7° 1 км - - - -
10:00 +13.4° С,С-В 3 - 20 км - облачно 763 768 +1.3 80% +10.1° 1 км - - - -
07:00 +13.6° С,С-В 3 - 20 км - облачно 762 766 +1.1 83% +10.8° 1 км - Сухая (без трещин) - -
04:00 +14.7° С,С-В 2 - 20 км - облачно с прояснениями 761 765 +0.8 77% +10.7° 1 км - - - -
01:00 +15.8° С 2 - 23 км - переменная облачность 760 764 +1 72% +10.8° более 2.5 км - - - -
Воскресенье, 20 Мая
Время местн. Темп Ветер Видим Явления Облачность нижн/средн/верх Атм. давл. Влжн Точка росы ВНГО R Сост. почвы Tg s
Напр Скр Прв ур.ст ур.м изм
22:00 +18.7° С 2 - 22 км - переменная облачность 759 763 +0.9 64% +11.8° 1 км - - - -
19:00 +25.3° З,С-З 3 - 20 км - переменная облачность 757 761 +0.2 39% +10.3° 1.5 км - - - -
16:00 +26° З 4 - 20 км - переменная облачность 757 761 +0.4 37% +10.3° 1 км - - - -
13:00 +24.7° З 4 - 20 км - переменная облачность 757 761 +0.3 41% +10.5° 1 км - - - -
10:00 +22.1° З 3 - 20 км - незначительная облачность 756 761 +0.8 58% +13.4° 1 км - - - -
07:00 +17.1° З 1 - 20 км - переменная облачность 756 760 +0.5 80% +13.7° более 2.5 км - Влажная (без луж) - -
04:00 +12.7° З 1 - 20 км небо без изменений {гроза, ливневые осадки} переменная облачность 755 759 +0.4 93% +11.6° 1 км - - - -
01:00 +14.3° З 1 - 21 км гроза без осадков {ливневые осадки} облачно 755 759 +0.1 92% +13° 1 км - - - -
Суббота, 19 Мая
Время местн. Темп Ветер Видим Явления Облачность нижн/средн/верх Атм. давл. Влжн Точка росы ВНГО R Сост. почвы Tg s
Напр Скр Прв ур.ст ур.м изм
22:00 +18.3° З 2 - 20 км - переменная облачность 755 759 +0.7 65% +11.6° 1 км - - - -
19:00 +26.3° Ю-З 4 - 20 км - переменная облачность 754 758 -0.3 40% +11.8° 1.5 км - - - -